Observation data for Fluvanna on 02/14/2017      Previous  Date  Next       Current Mesonet Observations  Soil Data  Daily Summary Page  Observations in Plain Language
KFVS 140600Z 35012KT 03/02 A3002 RMK A01 T00250023  RH  100%=      5-min Rain = 0
KFVS 140605Z 35012KT 03/02 A3002 RMK A01 T00250023  RH  100%=      5-min Rain = 0
KFVS 140610Z 35011KT 03/02 A3003 RMK A01 T00250024  RH  100%=      5-min Rain = 0
KFVS 140615Z 34011KT 03/02 A3003 RMK A01 T00260024  RH  100%=      5-min Rain = 0
KFVS 140620Z 34011KT 03/02 A3004 RMK A01 T00260024  RH  100%=      5-min Rain = 0
KFVS 140625Z 34009KT 03/02 A3004 RMK A01 T00260024  RH  100%=      5-min Rain = 0
KFVS 140630Z 34009KT 03/03 A3004 RMK A01 T00260025  RH  100%=      5-min Rain = 0
KFVS 140635Z 35011KT 03/02 A3004 RMK A01 T00270024  RH  099%=      5-min Rain = 0
KFVS 140640Z 34009KT 03/02 A3004 RMK A01 T00270023  RH  098%=      5-min Rain = 0
KFVS 140645Z 35010KT 03/02 A3004 RMK A01 T00280022  RH  097%=      5-min Rain = 0
KFVS 140650Z 36010KT 03/02 A3003 RMK A01 T00280021  RH  096%=      5-min Rain = 0
KFVS 140655Z 01009KT 03/02 A3002 RMK A01 T00280020  RH  096%=      5-min Rain = 0
KFVS 140700Z 01011KT 03/02 A3001 RMK A01 T00270020  RH  096%=      5-min Rain = 0
KFVS 140705Z 01010KT 03/02 A3001 RMK A01 T00270021  RH  097%=      5-min Rain = 0
KFVS 140710Z 01010KT 03/02 A3001 RMK A01 T00270021  RH  097%=      5-min Rain = 0
KFVS 140715Z 36011KT 03/02 A3001 RMK A01 T00270021  RH  097%=      5-min Rain = 0
KFVS 140720Z 00013KT 03/02 A30 RMK A01 T00270019  RH  096%=      5-min Rain = 0
KFVS 140725Z 00012KT 03/02 A2999 RMK A01 T00270019  RH  095%=      5-min Rain = 0
KFVS 140730Z 36011KT 03/02 A2999 RMK A01 T00280019  RH  095%=      5-min Rain = 0
KFVS 140735Z 36010KT 03/02 A30 RMK A01 T00280019  RH  095%=      5-min Rain = 0
KFVS 140740Z 35008KT 03/02 A3001 RMK A01 T00280019  RH  095%=      5-min Rain = 0
KFVS 140745Z 34010KT 03/02 A3002 RMK A01 T00280019  RH  095%=      5-min Rain = 0
KFVS 140750Z 34011KT 03/02 A3002 RMK A01 T00280019  RH  095%=      5-min Rain = 0
KFVS 140755Z 35011KT 03/02 A3002 RMK A01 T00280018  RH  095%=      5-min Rain = 0
KFVS 140800Z 35012KT 03/02 A3002 RMK A01 T00280018  RH  094%=      5-min Rain = 0
KFVS 140805Z 35012KT 03/02 A3001 RMK A01 T00280017  RH  094%=      5-min Rain = 0
KFVS 140810Z 35012KT 03/02 A3001 RMK A01 T00280017  RH  094%=      5-min Rain = 0
KFVS 140815Z 36009KT 03/02 A3001 RMK A01 T00280018  RH  094%=      5-min Rain = 0
KFVS 140820Z 36009KT 03/02 A3001 RMK A01 T00280018  RH  094%=      5-min Rain = 0
KFVS 140825Z 36009KT 03/02 A3001 RMK A01 T00280018  RH  094%=      5-min Rain = 0
KFVS 140830Z 36010KT 03/02 A2999 RMK A01 T00270018  RH  095%=      5-min Rain = 0
KFVS 140835Z 36010KT 03/02 A2999 RMK A01 T00270019  RH  095%=      5-min Rain = 0
KFVS 140840Z 01008KT 03/02 A3001 RMK A01 T00270019  RH  095%=      5-min Rain = 0
KFVS 140845Z 01007KT 03/02 A3002 RMK A01 T00270019  RH  096%=      5-min Rain = 0
KFVS 140850Z 01009KT 03/02 A3002 RMK A01 T00270019  RH  095%=      5-min Rain = 0
KFVS 140855Z 02008KT 03/02 A3002 RMK A01 T00270019  RH  095%=      5-min Rain = 0
KFVS 140900Z 01006KT 03/02 A3002 RMK A01 T00270019  RH  095%=      5-min Rain = 0
KFVS 140905Z 00007KT 03/02 A3002 RMK A01 T00280019  RH  095%=      5-min Rain = 0
KFVS 140910Z 36007KT 03/02 A3002 RMK A01 T00280020  RH  096%=      5-min Rain = 0
KFVS 140915Z 36007KT 03/02 A3002 RMK A01 T00280020  RH  096%=      5-min Rain = 0
KFVS 140920Z 35007KT 03/02 A3002 RMK A01 T00280021  RH  096%=      5-min Rain = 0
KFVS 140925Z 34009KT 03/02 A3001 RMK A01 T00280020  RH  096%=      5-min Rain = 0
KFVS 140930Z 36010KT 03/02 A30 RMK A01 T00270020  RH  096%=      5-min Rain = 0
KFVS 140935Z 36009KT 03/02 A30 RMK A01 T00270022  RH  097%=      5-min Rain = 0
KFVS 140940Z 35009KT 03/02 A30 RMK A01 T00280024  RH  099%=      5-min Rain = 0
KFVS 140945Z 35010KT 03/03 A30 RMK A01 T00280025  RH  100%=      5-min Rain = 0
KFVS 140950Z 34011KT 03/03 A2999 RMK A01 T00270026  RH  100%=      5-min Rain = 0
KFVS 140955Z 35011KT 03/03 A2999 RMK A01 T00270026  RH  100%=      5-min Rain = 0
KFVS 141000Z 35010G15KT 03/03 A2999 RMK A01 T00280026  RH  100%=      5-min Rain = 0
KFVS 141005Z 35012KT 03/03 A2999 RMK A01 T00280026  RH  100%=      5-min Rain = 0
KFVS 141010Z 35010KT 03/03 A30 RMK A01 T00280026  RH  100%=      5-min Rain = 0
KFVS 141015Z 36008KT 03/03 A30 RMK A01 T00280026  RH  100%=      5-min Rain = 0
KFVS 141020Z 36010KT 03/03 A2999 RMK A01 T00280026  RH  100%=      5-min Rain = 0
KFVS 141025Z 35010KT 03/03 A30 RMK A01 T00280026  RH  100%=      5-min Rain = 0
KFVS 141030Z 34009KT 03/03 A3001 RMK A01 T00280027  RH  100%=      5-min Rain = 0
KFVS 141035Z 34009KT 03/03 A3001 RMK A01 T00280027  RH  100%=      5-min Rain = 0
KFVS 141040Z 34008KT 03/03 A3001 RMK A01 T00290027  RH  100%=      5-min Rain = 0
KFVS 141045Z 34007KT 03/03 A3002 RMK A01 T00290028  RH  100%=      5-min Rain = 0
KFVS 141050Z 34010KT 03/03 A3002 RMK A01 T00290028  RH  100%=      5-min Rain = 0
KFVS 141055Z 34008KT 03/03 A3002 RMK A01 T00300028  RH  100%=      5-min Rain = 0
KFVS 141100Z 35010KT 03/03 A3001 RMK A01 T00300028  RH  100%=      5-min Rain = 0
KFVS 141105Z 34008KT 03/03 A3001 RMK A01 T00300028  RH  100%=      5-min Rain = 0
KFVS 141110Z 34009KT 03/03 A3001 RMK A01 T00300028  RH  100%=      5-min Rain = 0
KFVS 141115Z 34009KT 03/03 A3001 RMK A01 T00300028  RH  100%=      5-min Rain = 0
KFVS 141120Z 34010KT 03/03 A3001 RMK A01 T00300029  RH  100%=      5-min Rain = 0
KFVS 141125Z 33010KT 03/03 A3001 RMK A01 T00300029  RH  100%=      5-min Rain = 0
KFVS 141130Z 34010KT 03/03 A3001 RMK A01 T00310029  RH  100%=      5-min Rain = 0
KFVS 141135Z 34010KT 03/03 A30 RMK A01 T00300029  RH  100%=      5-min Rain = 0
KFVS 141140Z 35009KT 03/03 A30 RMK A01 T00300029  RH  100%=      5-min Rain = 0
KFVS 141145Z 34008KT 03/03 A3001 RMK A01 T00300029  RH  100%=      5-min Rain = 0
KFVS 141150Z 34008KT 03/03 A3001 RMK A01 T00300029  RH  100%=      5-min Rain = 0
KFVS 141155Z 34008KT 03/03 A3001 RMK A01 T00310029  RH  100%=      5-min Rain = 0
KFVS 141200Z 33009KT 03/03 A3001 RMK A01 T00310029  RH  100%=      5-min Rain = 0
KFVS 141205Z 33009KT 03/03 A3001 RMK A01 T00310030  RH  100%=      5-min Rain = 0
KFVS 141210Z 33009KT 03/03 A3001 RMK A01 T00320030  RH  100%=      5-min Rain = 0
KFVS 141215Z 33010KT 03/03 A3001 RMK A01 T00310030  RH  100%=      5-min Rain = 0
KFVS 141220Z 33009KT 03/03 A3001 RMK A01 T00310030  RH  100%=      5-min Rain = 0
KFVS 141225Z 33008KT 03/03 A3001 RMK A01 T00320030  RH  100%=      5-min Rain = 0
KFVS 141230Z 34007KT 03/03 A3001 RMK A01 T00320030  RH  100%=      5-min Rain = 0.01
KFVS 141235Z 35008KT 03/03 A30 RMK A01 T00320030  RH  100%=      5-min Rain = 0
KFVS 141240Z 34008KT 03/03 A30 RMK A01 T00320030  RH  100%=      5-min Rain = 0
KFVS 141245Z 35009KT 03/03 A30 RMK A01 T00320030  RH  100%=      5-min Rain = 0
KFVS 141250Z 35009KT 03/03 A30 RMK A01 T00320030  RH  100%=      5-min Rain = 0
KFVS 141255Z 35009KT 03/03 A30 RMK A01 T00320030  RH  100%=      5-min Rain = 0
KFVS 141300Z 35009KT 03/03 A30 RMK A01 T00320031  RH  100%=      5-min Rain = 0
KFVS 141305Z 34008KT 03/03 A30 RMK A01 T00330031  RH  100%=      5-min Rain = 0
KFVS 141310Z 34009KT 03/03 A30 RMK A01 T00330031  RH  100%=      5-min Rain = 0
KFVS 141315Z 34009G14KT 03/03 A30 RMK A01 T00330031  RH  100%=      5-min Rain = 0
KFVS 141320Z 34010KT 03/03 A30 RMK A01 T00330032  RH  100%=      5-min Rain = 0
KFVS 141325Z 34010G15KT 03/03 A30 RMK A01 T00340031  RH  099%=      5-min Rain = 0
KFVS 141330Z 34011KT 03/03 A30 RMK A01 T00340030  RH  099%=      5-min Rain = 0
KFVS 141335Z 34010KT 03/03 A30 RMK A01 T00340029  RH  098%=      5-min Rain = 0
KFVS 141340Z 34009KT 03/03 A3001 RMK A01 T00340028  RH  097%=      5-min Rain = 0
KFVS 141345Z 35008KT 04/03 A3001 RMK A01 T00350027  RH  096%=      5-min Rain = 0
KFVS 141350Z 35008KT 04/03 A3001 RMK A01 T00350027  RH  096%=      5-min Rain = 0
KFVS 141355Z 35009KT 04/03 A30 RMK A01 T00350028  RH  096%=      5-min Rain = 0
KFVS 141400Z 35008KT 04/03 A3001 RMK A01 T00350031  RH  098%=      5-min Rain = 0
KFVS 141405Z 34008KT 04/03 A3001 RMK A01 T00350033  RH  100%=      5-min Rain = 0
KFVS 141410Z 34008KT 04/03 A3002 RMK A01 T00350034  RH  100%=      5-min Rain = 0
KFVS 141415Z 33009KT 04/03 A3002 RMK A01 T00360034  RH  100%=      5-min Rain = 0
KFVS 141420Z 33010G15KT 04/03 A3003 RMK A01 T00360034  RH  100%=      5-min Rain = 0
KFVS 141425Z 33010KT 04/03 A3003 RMK A01 T00360031  RH  098%=      5-min Rain = 0
KFVS 141430Z 33012KT 04/03 A3003 RMK A01 T00370029  RH  096%=      5-min Rain = 0
KFVS 141435Z 32010KT 04/03 A3004 RMK A01 T00370028  RH  095%=      5-min Rain = 0
KFVS 141440Z 32012G17KT 04/03 A3004 RMK A01 T00360027  RH  095%=      5-min Rain = 0
KFVS 141445Z 32014KT 03/02 A3004 RMK A01 T00340023  RH  094%=      5-min Rain = 0
KFVS 141450Z 32015KT 03/02 A3005 RMK A01 T00340022  RH  093%=      5-min Rain = 0
KFVS 141455Z 33014G19KT 03/02 A3005 RMK A01 T00340021  RH  092%=      5-min Rain = 0
KFVS 141500Z 33013KT 04/02 A3005 RMK A01 T00350020  RH  091%=      5-min Rain = 0
KFVS 141505Z 33012KT 04/02 A3005 RMK A01 T00350020  RH  091%=      5-min Rain = 0
KFVS 141510Z 33011KT 04/02 A3006 RMK A01 T00350020  RH  091%=      5-min Rain = 0
KFVS 141515Z 33011KT 04/02 A3006 RMK A01 T00350020  RH  091%=      5-min Rain = 0
KFVS 141520Z 33011KT 04/02 A3006 RMK A01 T00350020  RH  091%=      5-min Rain = 0
KFVS 141525Z 33009KT 04/02 A3006 RMK A01 T00350021  RH  091%=      5-min Rain = 0
KFVS 141530Z 33010KT 04/02 A3006 RMK A01 T00360021  RH  091%=      5-min Rain = 0
KFVS 141535Z 33009KT 04/02 A3006 RMK A01 T00360021  RH  091%=      5-min Rain = 0
KFVS 141540Z 33010KT 04/02 A3006 RMK A01 T00370022  RH  091%=      5-min Rain = 0
KFVS 141545Z 34011KT 04/02 A3006 RMK A01 T00370021  RH  090%=      5-min Rain = 0
KFVS 141550Z 34012KT 04/02 A3006 RMK A01 T00370020  RH  090%=      5-min Rain = 0
KFVS 141555Z 34012KT 04/02 A3006 RMK A01 T00380021  RH  090%=      5-min Rain = 0
KFVS 141600Z 34011KT 04/02 A3006 RMK A01 T00380022  RH  090%=      5-min Rain = 0
KFVS 141605Z 34012KT 04/02 A3006 RMK A01 T00390022  RH  090%=      5-min Rain = 0
KFVS 141610Z 34011KT 04/02 A3006 RMK A01 T00400023  RH  090%=      5-min Rain = 0
KFVS 141615Z 34012KT 04/02 A3006 RMK A01 T00400023  RH  090%=      5-min Rain = 0
KFVS 141620Z 33012KT 04/02 A3006 RMK A01 T00400023  RH  090%=      5-min Rain = 0
KFVS 141625Z 34012G17KT 04/02 A3006 RMK A01 T00390022  RH  089%=      5-min Rain = 0
KFVS 141630Z 34011KT 04/02 A3006 RMK A01 T00400024  RH  090%=      5-min Rain = 0
KFVS 141635Z 34012KT 04/03 A3006 RMK A01 T00400025  RH  091%=      5-min Rain = 0
KFVS 141640Z 34014G19KT 04/03 A3005 RMK A01 T00410025  RH  091%=      5-min Rain = 0
KFVS 141645Z 34017KT 04/02 A3005 RMK A01 T00400023  RH  090%=      5-min Rain = 0
KFVS 141650Z 35016KT 04/02 A3005 RMK A01 T00390022  RH  090%=      5-min Rain = 0
KFVS 141655Z 35015KT 04/02 A3005 RMK A01 T00380023  RH  091%=      5-min Rain = 0
KFVS 141700Z 35013G18KT 04/02 A3006 RMK A01 T00390024  RH  091%=      5-min Rain = 0
KFVS 141705Z 34014KT 04/02 A3006 RMK A01 T00390023  RH  090%=      5-min Rain = 0
KFVS 141710Z 34016G21KT 04/02 A3006 RMK A01 T00380020  RH  089%=      5-min Rain = 0
KFVS 141715Z 35018KT 04/02 A3006 RMK A01 T00380018  RH  088%=      5-min Rain = 0
KFVS 141720Z 35017KT 04/02 A3006 RMK A01 T00390019  RH  088%=      5-min Rain = 0
KFVS 141725Z 35014KT 04/02 A3006 RMK A01 T00390021  RH  089%=      5-min Rain = 0
KFVS 141730Z 35016KT 04/02 A3006 RMK A01 T00380020  RH  089%=      5-min Rain = 0
KFVS 141735Z 35015KT 04/02 A3006 RMK A01 T00380020  RH  089%=      5-min Rain = 0
KFVS 141740Z 35014KT 04/02 A3006 RMK A01 T00380021  RH  090%=      5-min Rain = 0
KFVS 141745Z 36014KT 04/02 A3005 RMK A01 T00380022  RH  091%=      5-min Rain = 0
KFVS 141750Z 36014KT 04/02 A3005 RMK A01 T00370022  RH  091%=      5-min Rain = 0
KFVS 141755Z 35014KT 04/02 A3005 RMK A01 T00370023  RH  092%=      5-min Rain = 0
KFVS 141800Z 36014KT 04/03 A3005 RMK A01 T00380025  RH  092%=      5-min Rain = 0
KFVS 141805Z 35014KT 04/02 A3005 RMK A01 T00380024  RH  092%=      5-min Rain = 0
KFVS 141810Z 35013G18KT 04/03 A3006 RMK A01 T00380025  RH  092%=      5-min Rain = 0
KFVS 141815Z 34014KT 04/02 A3006 RMK A01 T00370023  RH  092%=      5-min Rain = 0
KFVS 141820Z 35014G20KT 04/02 A3006 RMK A01 T00370023  RH  091%=      5-min Rain = 0
KFVS 141825Z 35015KT 04/02 A3006 RMK A01 T00370020  RH  090%=      5-min Rain = 0
KFVS 141830Z 35014G19KT 04/02 A3006 RMK A01 T00360017  RH  088%=      5-min Rain = 0
KFVS 141835Z 36013G18KT 04/02 A3006 RMK A01 T00360017  RH  089%=      5-min Rain = 0
KFVS 141840Z 36013KT 04/02 A3006 RMK A01 T00360017  RH  089%=      5-min Rain = 0
KFVS 141845Z 36013KT 04/02 A3006 RMK A01 T00350017  RH  089%=      5-min Rain = 0
KFVS 141850Z 00013G18KT 04/02 A3006 RMK A01 T00360017  RH  089%=      5-min Rain = 0
KFVS 141855Z 36013KT 04/02 A3006 RMK A01 T00370019  RH  089%=      5-min Rain = 0
KFVS 141900Z 35013KT 04/02 A3006 RMK A01 T00370020  RH  090%=      5-min Rain = 0
KFVS 141905Z 36013KT 04/02 A3006 RMK A01 T00380022  RH  091%=      5-min Rain = 0
KFVS 141910Z 35012KT 04/03 A3006 RMK A01 T00390025  RH  092%=      5-min Rain = 0
KFVS 141915Z 35013KT 04/03 A3006 RMK A01 T00390025  RH  091%=      5-min Rain = 0
KFVS 141920Z 35011G17KT 04/03 A3006 RMK A01 T00400026  RH  092%=      5-min Rain = 0
KFVS 141925Z 34010KT 04/03 A3006 RMK A01 T00410027  RH  092%=      5-min Rain = 0
KFVS 141930Z 34011KT 04/03 A3006 RMK A01 T00400026  RH  091%=      5-min Rain = 0
KFVS 141935Z 35013G18KT 04/02 A3006 RMK A01 T00400024  RH  090%=      5-min Rain = 0
KFVS 141940Z 35015KT 04/02 A3006 RMK A01 T00410021  RH  088%=      5-min Rain = 0
KFVS 141945Z 36015KT 04/02 A3006 RMK A01 T00410019  RH  087%=      5-min Rain = 0
KFVS 141950Z 36015KT 04/02 A3006 RMK A01 T00390018  RH  087%=      5-min Rain = 0
KFVS 141955Z 36015KT 04/02 A3006 RMK A01 T00390019  RH  088%=      5-min Rain = 0
KFVS 142000Z 35014KT 04/02 A3006 RMK A01 T00390021  RH  089%=      5-min Rain = 0
KFVS 142005Z 35016KT 04/02 A3005 RMK A01 T00390020  RH  089%=      5-min Rain = 0
KFVS 142010Z 35016G21KT 04/02 A3005 RMK A01 T00390019  RH  088%=      5-min Rain = 0
KFVS 142015Z 34019G26KT 04/02 A3005 RMK A01 T00390016  RH  086%=      5-min Rain = 0
KFVS 142020Z 35020KT 04/02 A3005 RMK A01 T00400015  RH  085%=      5-min Rain = 0
KFVS 142025Z 35017G23KT 04/02 A3005 RMK A01 T00410016  RH  085%=      5-min Rain = 0
KFVS 142030Z 35015G20KT 04/02 A3005 RMK A01 T00410016  RH  085%=      5-min Rain = 0
KFVS 142035Z 35017G22KT 04/01 A3005 RMK A01 T00400014  RH  084%=      5-min Rain = 0
KFVS 142040Z 35016KT 04/02 A3005 RMK A01 T00400015  RH  085%=      5-min Rain = 0
KFVS 142045Z 35016G26KT 04/02 A3005 RMK A01 T00400016  RH  085%=      5-min Rain = 0
KFVS 142050Z 34018G24KT 04/02 A3005 RMK A01 T00390015  RH  085%=      5-min Rain = 0
KFVS 142055Z 35018G24KT 04/02 A3006 RMK A01 T00380016  RH  087%=      5-min Rain = 0
KFVS 142100Z 35014G19KT 04/02 A3006 RMK A01 T00370018  RH  089%=      5-min Rain = 0
KFVS 142105Z 34015G24KT 04/02 A3006 RMK A01 T00360019  RH  090%=      5-min Rain = 0
KFVS 142110Z 34018KT 03/02 A3006 RMK A01 T00340016  RH  089%=      5-min Rain = 0
KFVS 142115Z 34017G22KT 03/02 A3006 RMK A01 T00340016  RH  089%=      5-min Rain = 0
KFVS 142120Z 35020G25KT 03/02 A3006 RMK A01 T00340015  RH  088%=      5-min Rain = 0
KFVS 142125Z 35018KT 04/02 A3006 RMK A01 T00350015  RH  088%=      5-min Rain = 0
KFVS 142130Z 35017KT 04/02 A3006 RMK A01 T00350015  RH  088%=      5-min Rain = 0
KFVS 142135Z 35018KT 04/01 A3006 RMK A01 T00360014  RH  087%=      5-min Rain = 0
KFVS 142140Z 35018G24KT 04/01 A3006 RMK A01 T00350013  RH  087%=      5-min Rain = 0
KFVS 142145Z 35018KT 04/01 A3006 RMK A01 T00350013  RH  086%=      5-min Rain = 0
KFVS 142150Z 35016KT 04/01 A3007 RMK A01 T00350013  RH  086%=      5-min Rain = 0
KFVS 142155Z 35015G20KT 04/01 A3007 RMK A01 T00350012  RH  086%=      5-min Rain = 0
KFVS 142200Z 36014KT 03/01 A3007 RMK A01 T00340012  RH  087%=      5-min Rain = 0
KFVS 142205Z 35016KT 03/01 A3007 RMK A01 T00330011  RH  086%=      5-min Rain = 0
KFVS 142210Z 00015G21KT 03/01 A3007 RMK A01 T00330011  RH  086%=      5-min Rain = 0
KFVS 142215Z 36015KT 03/01 A3007 RMK A01 T00330010  RH  086%=      5-min Rain = 0
KFVS 142220Z 00016KT 03/01 A3008 RMK A01 T00330008  RH  084%=      5-min Rain = 0
KFVS 142225Z 36014KT 03/01 A3008 RMK A01 T00330008  RH  084%=      5-min Rain = 0
KFVS 142230Z 36012G17KT 03/01 A3008 RMK A01 T00340008  RH  084%=      5-min Rain = 0
KFVS 142235Z 35012KT 03/01 A3008 RMK A01 T00340008  RH  084%=      5-min Rain = 0
KFVS 142240Z 35010KT 04/01 A3008 RMK A01 T00350009  RH  084%=      5-min Rain = 0
KFVS 142245Z 35011KT 04/01 A3008 RMK A01 T00350010  RH  084%=      5-min Rain = 0
KFVS 142250Z 35010G15KT 04/01 A3008 RMK A01 T00360010  RH  084%=      5-min Rain = 0
KFVS 142255Z 35013G21KT 04/01 A3009 RMK A01 T00370009  RH  083%=      5-min Rain = 0
KFVS 142300Z 35015G20KT 04/01 A3009 RMK A01 T00380007  RH  081%=      5-min Rain = 0
KFVS 142305Z 34013KT 04/01 A3009 RMK A01 T00380009  RH  082%=      5-min Rain = 0
KFVS 142310Z 34016G22KT 04/01 A3009 RMK A01 T00380007  RH  082%=      5-min Rain = 0
KFVS 142315Z 35015KT 04/01 A3009 RMK A01 T00380006  RH  081%=      5-min Rain = 0
KFVS 142320Z 35014G20KT 04/01 A3009 RMK A01 T00370007  RH  081%=      5-min Rain = 0
KFVS 142325Z 35016G21KT 04/01 A3009 RMK A01 T00370005  RH  080%=      5-min Rain = 0
KFVS 142330Z 35019G26KT 04/00 A3009 RMK A01 T00370004  RH  080%=      5-min Rain = 0
KFVS 142335Z 36017G22KT 04/00 A3009 RMK A01 T00370004  RH  080%=      5-min Rain = 0
KFVS 142340Z 35016KT 04/01 A3009 RMK A01 T00360005  RH  081%=      5-min Rain = 0
KFVS 142345Z 35016G23KT 04/01 A301 RMK A01 T00360005  RH  081%=      5-min Rain = 0
KFVS 142350Z 35016G21KT 04/01 A301 RMK A01 T00360005  RH  081%=      5-min Rain = 0
KFVS 142355Z 35014G19KT 04/01 A301 RMK A01 T00360005  RH  081%=      5-min Rain = 0
KFVS 150000Z 34015G21KT 04/01 A301 RMK A01 T00360005  RH  081%=      5-min Rain = 0
KFVS 150005Z 34019G26KT 04/00 A301 RMK A01 T00350003  RH  081%=      5-min Rain = 0
KFVS 150010Z 35020G25KT 04/00 A3011 RMK A01 T00350002  RH  080%=      5-min Rain = 0
KFVS 150015Z 34018KT 03/00 A3011 RMK A01 T00340002  RH  080%=      5-min Rain = 0
KFVS 150020Z 35017KT 03/00 A3011 RMK A01 T00340002  RH  081%=      5-min Rain = 0
KFVS 150025Z 35015G20KT 03/00 A3011 RMK A01 T00340003  RH  081%=      5-min Rain = 0
KFVS 150030Z 35014KT 03/00 A3012 RMK A01 T00340003  RH  081%=      5-min Rain = 0
KFVS 150035Z 35014KT 03/00 A3012 RMK A01 T00330004  RH  082%=      5-min Rain = 0
KFVS 150040Z 35013KT 03/00 A3012 RMK A01 T00330003  RH  082%=      5-min Rain = 0
KFVS 150045Z 35013KT 03/00 A3013 RMK A01 T00330004  RH  082%=      5-min Rain = 0
KFVS 150050Z 35013KT 03/00 A3013 RMK A01 T00330004  RH  082%=      5-min Rain = 0
KFVS 150055Z 36014G19KT 03/00 A3013 RMK A01 T00330003  RH  081%=      5-min Rain = 0
KFVS 150100Z 35013KT 03/00 A3013 RMK A01 T00330003  RH  081%=      5-min Rain = 0
KFVS 150105Z 36011KT 03/00 A3014 RMK A01 T00330004  RH  082%=      5-min Rain = 0
KFVS 150110Z 35010KT 03/00 A3014 RMK A01 T00320004  RH  083%=      5-min Rain = 0
KFVS 150115Z 35011G16KT 03/00 A3014 RMK A01 T00320004  RH  082%=      5-min Rain = 0
KFVS 150120Z 35011KT 03/00 A3014 RMK A01 T00320000  RH  080%=      5-min Rain = 0
KFVS 150125Z 35011G16KT 03/M00 A3014 RMK A01 T00331002  RH  079%=      5-min Rain = 0
KFVS 150130Z 35010KT 03/M00 A3014 RMK A01 T00321001  RH  080%=      5-min Rain = 0
KFVS 150135Z 35010KT 03/M00 A3014 RMK A01 T00321003  RH  079%=      5-min Rain = 0
KFVS 150140Z 35009KT 03/M00 A3014 RMK A01 T00311001  RH  080%=      5-min Rain = 0
KFVS 150145Z 34009KT 03/M00 A3014 RMK A01 T00301001  RH  081%=      5-min Rain = 0
KFVS 150150Z 34009KT 03/M00 A3014 RMK A01 T00301004  RH  079%=      5-min Rain = 0
KFVS 150155Z 33008KT 03/M00 A3014 RMK A01 T00311003  RH  079%=      5-min Rain = 0
KFVS 150200Z 33008KT 03/M00 A3015 RMK A01 T00321004  RH  078%=      5-min Rain = 0
KFVS 150205Z 32007KT 03/M00 A3015 RMK A01 T00321003  RH  079%=      5-min Rain = 0
KFVS 150210Z 32007KT 03/M00 A3015 RMK A01 T00321003  RH  079%=      5-min Rain = 0
KFVS 150215Z 32007KT 03/M00 A3015 RMK A01 T00321003  RH  079%=      5-min Rain = 0
KFVS 150220Z 32007KT 03/M00 A3016 RMK A01 T00311003  RH  079%=      5-min Rain = 0
KFVS 150225Z 32006KT 03/M00 A3016 RMK A01 T00301003  RH  080%=      5-min Rain = 0
KFVS 150230Z 32007KT 03/M00 A3016 RMK A01 T00291003  RH  081%=      5-min Rain = 0
KFVS 150235Z 32007KT 03/M00 A3016 RMK A01 T00291002  RH  081%=      5-min Rain = 0
KFVS 150240Z 32007KT 03/M00 A3016 RMK A01 T00291001  RH  081%=      5-min Rain = 0
KFVS 150245Z 32006KT 03/M00 A3016 RMK A01 T00301001  RH  081%=      5-min Rain = 0
KFVS 150250Z 32006KT 03/00 A3017 RMK A01 T003100-0  RH  081%=      5-min Rain = 0
KFVS 150255Z 32006KT 03/00 A3017 RMK A01 T00320000  RH  081%=      5-min Rain = 0
KFVS 150300Z 32006KT 03/00 A3017 RMK A01 T00320001  RH  081%=      5-min Rain = 0
KFVS 150305Z 32007G12KT 03/00 A3017 RMK A01 T00330001  RH  080%=      5-min Rain = 0
KFVS 150310Z 32007KT 04/00 A3017 RMK A01 T003500-0  RH  079%=      5-min Rain = 0
KFVS 150315Z 33008KT 04/00 A3017 RMK A01 T003600-0  RH  078%=      5-min Rain = 0
KFVS 150320Z 34010KT 04/M00 A3017 RMK A01 T00371002  RH  077%=      5-min Rain = 0
KFVS 150325Z 34013KT 04/M00 A3017 RMK A01 T00391002  RH  076%=      5-min Rain = 0
KFVS 150330Z 34012KT 04/M00 A3017 RMK A01 T00391003  RH  075%=      5-min Rain = 0
KFVS 150335Z 34012KT 04/M00 A3017 RMK A01 T00401002  RH  075%=      5-min Rain = 0
KFVS 150340Z 33011KT 04/M00 A3017 RMK A01 T00391001  RH  075%=      5-min Rain = 0
KFVS 150345Z 34010KT 04/M00 A3017 RMK A01 T00391001  RH  076%=      5-min Rain = 0
KFVS 150350Z 34010KT 04/M00 A3016 RMK A01 T00401002  RH  075%=      5-min Rain = 0
KFVS 150355Z 34009KT 04/M00 A3016 RMK A01 T00401001  RH  075%=      5-min Rain = 0
KFVS 150400Z 34009KT 04/M00 A3016 RMK A01 T00401001  RH  075%=      5-min Rain = 0
KFVS 150405Z 34009KT 04/00 A3016 RMK A01 T004000-0  RH  076%=      5-min Rain = 0
KFVS 150410Z 34008KT 04/00 A3016 RMK A01 T00390000  RH  076%=      5-min Rain = 0
KFVS 150415Z 34009KT 04/00 A3016 RMK A01 T00400000  RH  076%=      5-min Rain = 0
KFVS 150420Z 34008KT 04/00 A3016 RMK A01 T00390001  RH  077%=      5-min Rain = 0
KFVS 150425Z 34008KT 04/00 A3016 RMK A01 T00400001  RH  077%=      5-min Rain = 0
KFVS 150430Z 35007KT 04/00 A3016 RMK A01 T00390001  RH  077%=      5-min Rain = 0
KFVS 150435Z 35008KT 04/M00 A3016 RMK A01 T00381001  RH  077%=      5-min Rain = 0
KFVS 150440Z 35007KT 04/00 A3015 RMK A01 T00370000  RH  078%=      5-min Rain = 0
KFVS 150445Z 34008KT 04/00 A3016 RMK A01 T003500-0  RH  078%=      5-min Rain = 0
KFVS 150450Z 34008KT 04/M00 A3015 RMK A01 T00351001  RH  078%=      5-min Rain = 0
KFVS 150455Z 34009KT 04/M00 A3015 RMK A01 T00351003  RH  077%=      5-min Rain = 0
KFVS 150500Z 34008KT 04/M00 A3015 RMK A01 T00351004  RH  077%=      5-min Rain = 0
KFVS 150505Z 34008KT 04/M01 A3015 RMK A01 T00361005  RH  076%=      5-min Rain = 0
KFVS 150510Z 34008KT 03/M01 A3015 RMK A01 T00341005  RH  076%=      5-min Rain = 0
KFVS 150515Z 34008KT 03/M01 A3015 RMK A01 T00341006  RH  076%=      5-min Rain = 0
KFVS 150520Z 34008KT 04/M01 A3015 RMK A01 T00351006  RH  075%=      5-min Rain = 0
KFVS 150525Z 34007KT 03/M01 A3016 RMK A01 T00341006  RH  076%=      5-min Rain = 0
KFVS 150530Z 34008KT 03/M01 A3015 RMK A01 T00331006  RH  076%=      5-min Rain = 0
KFVS 150535Z 34007KT 03/M01 A3015 RMK A01 T00331006  RH  077%=      5-min Rain = 0
KFVS 150540Z 34007KT 03/M01 A3015 RMK A01 T00321007  RH  077%=      5-min Rain = 0
KFVS 150545Z 34007KT 03/M01 A3015 RMK A01 T00321008  RH  076%=      5-min Rain = 0
KFVS 150550Z 34008KT 03/M01 A3016 RMK A01 T00331008  RH  075%=      5-min Rain = 0
KFVS 150555Z 34008KT 04/M01 A3016 RMK A01 T00351010  RH  074%=      5-min Rain = 0

Page generated in 0.0092 seconds.